South Bend Regional Airport
KSBN : rendu visible

Aérodrome :











RETROUVEZ-NOUS SUR...

 
LOGIN :

S'inscrire | Disclaimer

   EN    FR    IT 

 









Légende :    VFR   VFR Marginal   IFR   IFR Intensif   IFR Très Intensif
Visi : 
Plafond : 
>= 8 km
>= 3000ft
5 à 8 km
1000 à 3000 ft
1500m à 5 km
500 à 1000 ft
800 à 1500m
200 à 500 ft
< 800m
< 200 ft
Symboles :   Orages  Brouillard  Fortes neiges  Fortes précipitations  Vent > 20 kt






- Altitude de l'aérodrome : 799 ft
- Code IATA : SBN


KSBN - South Bend Regional

DERNIER METAR :
  • 250949Z 14010KT 10SM -RA FEW012 SCT022 BKN032 21/19 A2993 RMK AO2 LTG DSNT E AND SE P0006

METARs EXPIRÉS :
  • 250908Z AUTO 13006KT 5SM -RA BR BKN021 OVC026 21/19 A2996 RMK AO2 LTG DSNT E AND SE AND NW P0004 T02060189
  • 250854Z AUTO 13008KT 4SM VCTS RA BR BKN022 OVC027 21/19 A2996 RMK AO2 LTG DSNT E AND SE RAB0757 TSB11E49 SLP141 P0071 60071 T02060189 58005
  • 250849Z AUTO 13006KT 3SM VCTS +RA BR FEW013 BKN022 OVC027 21/19 A2997 RMK AO2 LTG DSNT E AND SE RAB0757 TSB11E49 P0069
  • 250837Z AUTO 15007KT 2SM +TSRA BR FEW014 SCT023 OVC029 21/19 A2997 RMK AO2 LTG DSNT E-S RAB0757 TSB11 P0062 T02060189
  • 250834Z AUTO 16007KT 1 1/2SM +TSRA BR SCT014 SCT025 OVC030 21/19 A2997 RMK AO2 LTG DSNT ALQDS RAB0757 TSB11 P0059 T02060189
  • 250821Z AUTO 20009KT 1 3/4SM +TSRA BR SCT016 BKN029 OVC034 21/19 A2999 RMK AO2 LTG DSNT ALQDS RAB0757 TSB11 P0030 T02060189
  • 250811Z AUTO 20008G20KT 2SM +TSRA BR FEW026 OVC036 21/19 A2998 RMK AO2 LTG DSNT S AND SW RAB0757 TSB11 P0013 T02060189
  • 250754Z AUTO 18008KT 10SM VCTS BKN036 OVC070 22/18 A2998 RMK AO2 LTG DSNT S-W SLP146 T02220178
  • 250654Z AUTO 17006KT 10SM OVC085 22/17 A2998 RMK AO2 SLP146 T02220172

TAF KSBN
Valide du 25 à 09h jusqu'au 26 à 06h UTC


250840Z 2509/2606 18012KT 5SM -SHRA BR VCTS SCT035CB OVC080
TEMPO 2509/2512 2SM TSRA BKN035CB
FM251200 19011G19KT 5SM SHRA BR VCTS OVC015CB
TEMPO 2512/2516 2SM +TSRA BR BKN007CB
FM251900 20013G22KT P6SM VCSH BKN015
FM252100 21014KT P6SM BKN025
FIR KZAU / Amérique du Nord



MET'MAP, la Météo Aéronautique d'un coup d'oeil ! - Copyright ORBIFLY Décembre 2007 - Disclaimer

ORBIFLY MET'MAP TEAM :

Programmation & Développement : Alexandra Zaïnal
Sur une idée originale de : Baudouin d'Aumeries
Assistance à la programmation : Marc-Olivier Méhu
Soutien technique & logistique : Manuel Goepfert

Contact : metmap@orbifly.com




SOURCES & CREDITS :

   NOAA       Earth
Advisory